createdAt,value
2023-03-26T00:00:44.585Z,10.44
2023-03-26T00:03:16.948Z,10.47
2023-03-26T00:05:48.554Z,10.49
2023-03-26T00:08:20.229Z,10.53
2023-03-26T00:10:51.219Z,10.52
2023-03-26T00:13:21.947Z,10.51
2023-03-26T00:15:55.871Z,10.52
2023-03-26T00:18:31.024Z,10.51
2023-03-26T00:21:03.166Z,10.51
2023-03-26T00:23:35.645Z,10.51
2023-03-26T00:26:10.837Z,10.50
2023-03-26T00:28:41.714Z,10.50
2023-03-26T00:31:17.693Z,10.51
2023-03-26T00:33:48.551Z,10.50
2023-03-26T00:36:20.275Z,10.48
2023-03-26T00:38:53.285Z,10.50
2023-03-26T00:41:31.348Z,10.48
2023-03-26T00:44:03.302Z,10.45
2023-03-26T00:46:36.719Z,10.40
2023-03-26T00:49:11.254Z,10.36
2023-03-26T00:51:42.251Z,10.33
2023-03-26T00:54:13.043Z,10.31
2023-03-26T00:56:43.851Z,10.30
2023-03-26T00:59:14.766Z,10.32
2023-03-26T01:01:48.105Z,10.36
2023-03-26T01:04:28.523Z,10.36
2023-03-26T01:07:01.982Z,10.39
2023-03-26T01:09:37.905Z,10.40
2023-03-26T01:12:10.344Z,10.42
2023-03-26T01:14:41.994Z,10.39
2023-03-26T01:17:16.356Z,10.43
2023-03-26T01:19:53.161Z,10.44
2023-03-26T01:22:26.520Z,10.43
2023-03-26T01:24:59.819Z,10.44
2023-03-26T01:27:42.018Z,10.44
2023-03-26T01:30:21.502Z,10.42
2023-03-26T01:33:02.236Z,10.41
2023-03-26T01:35:40.985Z,10.40
2023-03-26T01:38:23.926Z,10.38
2023-03-26T01:41:03.466Z,10.40
2023-03-26T01:43:39.782Z,10.41
2023-03-26T01:46:12.864Z,10.41
2023-03-26T01:48:46.486Z,10.40
2023-03-26T01:51:18.242Z,10.45
2023-03-26T01:53:50.861Z,10.46
2023-03-26T01:56:29.937Z,10.48
2023-03-26T01:59:16.670Z,10.48
2023-03-26T02:01:55.226Z,10.47
2023-03-26T02:04:33.420Z,10.48
2023-03-26T02:07:10.802Z,10.49
2023-03-26T02:09:50.205Z,10.49
2023-03-26T02:12:26.055Z,10.49
2023-03-26T02:14:57.505Z,10.50
2023-03-26T02:17:30.501Z,10.49
2023-03-26T02:20:06.452Z,10.48
2023-03-26T02:22:41.174Z,10.46
2023-03-26T02:25:16.171Z,10.41
2023-03-26T02:27:50.701Z,10.42
2023-03-26T02:30:25.960Z,10.41
2023-03-26T02:33:00.434Z,10.41
2023-03-26T02:35:39.154Z,10.39
2023-03-26T02:38:10.377Z,10.34
2023-03-26T02:40:41.256Z,10.30
2023-03-26T02:43:15.344Z,10.26
2023-03-26T02:45:47.193Z,10.23
2023-03-26T02:48:48.261Z,10.18
2023-03-26T02:51:25.547Z,10.17
2023-03-26T02:54:03.217Z,10.15
2023-03-26T02:56:37.342Z,10.13
2023-03-26T02:59:24.505Z,10.08
2023-03-26T03:02:15.072Z,10.08
2023-03-26T03:04:46.177Z,10.07
2023-03-26T03:07:17.391Z,10.07
2023-03-26T03:09:51.009Z,10.10
2023-03-26T03:12:44.876Z,10.11
2023-03-26T03:15:18.608Z,10.12
2023-03-26T03:17:49.700Z,10.15
2023-03-26T03:20:22.271Z,10.17
2023-03-26T03:22:52.982Z,10.18
2023-03-26T03:25:23.826Z,10.20
2023-03-26T03:27:54.686Z,10.21
2023-03-26T03:30:28.750Z,10.22
2023-03-26T03:33:13.466Z,10.20
2023-03-26T03:35:46.256Z,10.20
2023-03-26T03:38:17.211Z,10.21
2023-03-26T03:40:53.654Z,10.21
2023-03-26T03:43:24.575Z,10.21
2023-03-26T03:46:16.467Z,10.21
2023-03-26T03:48:52.752Z,10.20
2023-03-26T03:51:37.458Z,10.19
2023-03-26T03:54:21.033Z,10.19
2023-03-26T03:56:51.836Z,10.18
2023-03-26T03:59:47.840Z,10.16
2023-03-26T04:02:26.877Z,10.13
2023-03-26T04:05:02.700Z,10.13
2023-03-26T04:07:34.270Z,10.13
2023-03-26T04:10:09.395Z,10.13
2023-03-26T04:13:18.755Z,10.13
2023-03-26T04:16:09.918Z,10.15
2023-03-26T04:18:45.498Z,10.16
2023-03-26T04:21:19.711Z,10.17
2023-03-26T04:23:50.621Z,10.17
2023-03-26T04:26:48.397Z,10.16
2023-03-26T04:29:22.367Z,10.14
2023-03-26T04:31:58.974Z,10.11
2023-03-26T04:34:33.699Z,10.11
2023-03-26T04:37:20.976Z,10.08
2023-03-26T04:40:08.694Z,10.06
2023-03-26T04:42:46.536Z,10.03
2023-03-26T04:45:30.648Z,10.02
2023-03-26T04:48:02.700Z,9.98
2023-03-26T04:50:36.396Z,9.99
2023-03-26T04:53:07.541Z,10.01
2023-03-26T04:56:15.166Z,10.07
2023-03-26T04:59:05.382Z,10.14
2023-03-26T05:01:42.176Z,10.19
2023-03-26T05:04:15.449Z,10.26
2023-03-26T05:06:49.838Z,10.32
2023-03-26T05:09:26.807Z,10.40
2023-03-26T05:12:17.753Z,10.45
2023-03-26T05:15:00.308Z,10.48
2023-03-26T05:18:00.448Z,10.49
2023-03-26T05:20:36.258Z,10.51
2023-03-26T05:23:12.741Z,10.52
2023-03-26T05:25:49.326Z,10.53
2023-03-26T05:28:25.129Z,10.53
2023-03-26T05:31:01.314Z,10.53
2023-03-26T05:33:36.386Z,10.52
2023-03-26T05:36:13.501Z,10.49
2023-03-26T05:38:50.323Z,10.48
2023-03-26T05:41:40.933Z,10.52
2023-03-26T05:44:11.660Z,10.66
2023-03-26T05:46:42.402Z,10.93
2023-03-26T05:49:17.026Z,11.27
2023-03-26T05:51:47.744Z,11.69
2023-03-26T05:54:40.426Z,12.25
2023-03-26T05:57:35.739Z,12.78
2023-03-26T06:00:49.098Z,13.23
2023-03-26T06:03:32.234Z,13.42
2023-03-26T06:06:23.172Z,13.48
2023-03-26T06:09:02.208Z,13.58
2023-03-26T06:11:37.089Z,13.68
2023-03-26T06:14:09.380Z,14.03
2023-03-26T06:16:43.124Z,14.58
2023-03-26T06:19:24.754Z,15.20
2023-03-26T06:22:01.403Z,15.68
2023-03-26T06:24:37.536Z,15.91
2023-03-26T06:27:36.945Z,16.15
2023-03-26T06:30:43.162Z,16.28
2023-03-26T06:33:25.330Z,16.37
2023-03-26T06:35:56.660Z,16.36
2023-03-26T06:38:28.324Z,16.42
2023-03-26T06:41:05.809Z,16.63
2023-03-26T06:43:57.557Z,16.89
2023-03-26T06:46:47.183Z,17.19
2023-03-26T06:49:17.926Z,17.45
2023-03-26T06:52:18.131Z,17.86
2023-03-26T06:55:03.943Z,18.29
2023-03-26T06:58:10.028Z,18.79
2023-03-26T07:01:01.870Z,19.18
2023-03-26T07:03:51.269Z,19.51
2023-03-26T07:06:54.431Z,19.56
2023-03-26T07:09:43.902Z,19.71
2023-03-26T07:12:46.992Z,20.17
2023-03-26T07:15:24.072Z,20.51
2023-03-26T07:18:20.068Z,20.81
2023-03-26T07:20:52.998Z,21.02
2023-03-26T07:23:26.042Z,21.25
2023-03-26T07:26:01.984Z,21.22
2023-03-26T07:29:04.660Z,21.19
2023-03-26T07:31:49.242Z,21.29
2023-03-26T07:34:49.658Z,21.44
2023-03-26T07:37:39.618Z,21.59
2023-03-26T07:40:21.153Z,21.71
2023-03-26T07:43:16.934Z,21.79
2023-03-26T07:46:08.993Z,21.87
2023-03-26T07:48:52.172Z,22.06
2023-03-26T07:51:48.955Z,22.06
2023-03-26T07:54:31.174Z,22.05
2023-03-26T07:57:41.054Z,21.92
2023-03-26T08:00:51.853Z,22.14
2023-03-26T08:03:45.308Z,22.29
2023-03-26T08:06:38.669Z,22.51
2023-03-26T08:09:29.827Z,22.76
2023-03-26T08:12:27.768Z,23.02
2023-03-26T08:15:06.346Z,23.19
2023-03-26T08:17:43.103Z,23.36
2023-03-26T08:20:26.468Z,23.58
2023-03-26T08:23:04.311Z,23.80
2023-03-26T08:25:47.522Z,23.89
2023-03-26T08:28:30.856Z,24.14
2023-03-26T08:31:03.680Z,24.28
2023-03-26T08:33:38.386Z,24.28
2023-03-26T08:36:10.094Z,24.36
2023-03-26T08:38:40.718Z,24.28
2023-03-26T08:41:41.093Z,24.38
2023-03-26T08:44:52.750Z,24.53
2023-03-26T08:47:49.728Z,24.55
2023-03-26T08:51:01.874Z,24.36
2023-03-26T08:54:16.889Z,24.12
2023-03-26T08:56:59.410Z,23.90
2023-03-26T09:00:13.792Z,23.62
2023-03-26T09:03:14.407Z,23.35
2023-03-26T09:06:08.858Z,22.98
2023-03-26T09:09:29.414Z,22.61
2023-03-26T09:12:20.828Z,22.31
2023-03-26T09:15:28.149Z,22.20
2023-03-26T09:18:19.439Z,22.14
2023-03-26T09:21:26.133Z,21.95
2023-03-26T09:24:27.650Z,21.79
2023-03-26T09:27:11.343Z,21.54
2023-03-26T09:30:03.046Z,21.15
2023-03-26T09:33:07.592Z,20.71
2023-03-26T09:36:09.903Z,20.28
2023-03-26T09:38:47.021Z,20.05
2023-03-26T09:41:24.364Z,19.87
2023-03-26T09:44:42.531Z,19.66
2023-03-26T09:47:48.156Z,19.28
2023-03-26T09:50:38.474Z,19.15
2023-03-26T09:53:41.311Z,19.03
2023-03-26T09:56:31.742Z,18.92
2023-03-26T09:59:34.735Z,18.84
2023-03-26T10:02:45.578Z,18.85
2023-03-26T10:05:34.581Z,18.91
2023-03-26T10:08:15.706Z,18.96
2023-03-26T10:10:55.434Z,19.03
2023-03-26T10:13:39.060Z,19.04
2023-03-26T10:16:23.321Z,19.01
2023-03-26T10:19:11.926Z,19.05
2023-03-26T10:21:49.170Z,19.13
2023-03-26T10:24:48.999Z,19.18
2023-03-26T10:27:34.056Z,19.14
2023-03-26T10:30:29.545Z,19.13
2023-03-26T10:33:12.860Z,19.07
2023-03-26T10:35:56.597Z,19.00
2023-03-26T10:38:42.985Z,18.85
2023-03-26T10:41:20.896Z,18.61
2023-03-26T10:44:16.019Z,18.49
2023-03-26T10:47:30.414Z,18.39
2023-03-26T10:50:26.688Z,18.24
2023-03-26T10:53:02.489Z,18.11
2023-03-26T10:55:39.614Z,18.05
2023-03-26T10:58:19.778Z,18.07
2023-03-26T11:00:57.888Z,18.25
2023-03-26T11:03:52.220Z,18.48
2023-03-26T11:06:33.830Z,18.71
2023-03-26T11:09:26.563Z,18.90
2023-03-26T11:12:03.814Z,19.10
2023-03-26T11:15:01.480Z,19.25
2023-03-26T11:17:46.593Z,19.36
2023-03-26T11:20:23.559Z,19.56
2023-03-26T11:23:07.344Z,19.79
2023-03-26T11:25:54.179Z,20.07
2023-03-26T11:28:37.198Z,20.24
2023-03-26T11:31:17.963Z,20.34
2023-03-26T11:33:54.877Z,20.35
2023-03-26T11:36:36.187Z,20.31
2023-03-26T11:39:14.046Z,20.25
2023-03-26T11:41:44.721Z,20.37
2023-03-26T11:44:37.522Z,20.60
2023-03-26T11:47:12.530Z,20.83
2023-03-26T11:49:44.820Z,20.94
2023-03-26T11:52:18.787Z,20.96
2023-03-26T11:54:50.931Z,20.76
2023-03-26T11:57:28.201Z,20.55
2023-03-26T12:00:04.583Z,20.31
2023-03-26T12:02:44.372Z,20.00
2023-03-26T12:05:19.588Z,19.77
2023-03-26T12:07:57.335Z,19.64
2023-03-26T12:10:32.135Z,19.60
2023-03-26T12:13:04.885Z,19.49
2023-03-26T12:15:35.853Z,19.35
2023-03-26T12:18:27.168Z,19.19
2023-03-26T12:21:08.320Z,19.05
2023-03-26T12:23:47.879Z,18.94
2023-03-26T12:26:21.090Z,18.86
2023-03-26T12:28:53.221Z,18.75
2023-03-26T12:31:26.775Z,18.51
2023-03-26T12:34:10.872Z,18.34
2023-03-26T12:36:41.668Z,18.16
2023-03-26T12:40:07.088Z,17.98
2023-03-26T12:44:51.383Z,17.84
2023-03-26T12:45:25.919Z,17.72
2023-03-26T12:48:04.286Z,17.64
2023-03-26T12:50:48.747Z,17.58
2023-03-26T12:53:45.471Z,17.54
2023-03-26T12:56:24.753Z,17.54
2023-03-26T12:59:19.400Z,17.53
2023-03-26T13:01:58.118Z,17.54
2023-03-26T13:05:05.157Z,17.52
2023-03-26T13:07:54.546Z,17.44
2023-03-26T13:10:51.688Z,17.46
2023-03-26T13:13:50.681Z,17.42
2023-03-26T13:16:30.387Z,17.41
2023-03-26T13:19:05.538Z,17.37
2023-03-26T13:21:42.024Z,17.36
2023-03-26T13:24:22.009Z,17.35
2023-03-26T13:27:07.423Z,17.35
2023-03-26T13:29:50.265Z,17.34
2023-03-26T13:32:30.144Z,17.29
2023-03-26T13:35:13.721Z,17.27
2023-03-26T13:37:53.838Z,17.24
2023-03-26T13:40:29.734Z,17.19
2023-03-26T13:43:26.486Z,17.13
2023-03-26T13:46:08.211Z,17.09
2023-03-26T13:48:45.246Z,17.06
2023-03-26T13:51:21.527Z,17.04
2023-03-26T13:53:58.192Z,17.00
2023-03-26T13:56:35.736Z,16.99
2023-03-26T13:59:16.058Z,16.95
2023-03-26T14:01:54.276Z,16.92
2023-03-26T14:04:32.889Z,16.85
2023-03-26T14:07:10.676Z,16.81
2023-03-26T14:09:48.636Z,16.76
2023-03-26T14:12:45.026Z,16.72
2023-03-26T14:15:21.818Z,16.72
2023-03-26T14:18:01.536Z,16.71
2023-03-26T14:21:11.932Z,16.70
2023-03-26T14:24:23.402Z,16.70
2023-03-26T14:27:20.331Z,16.64
2023-03-26T14:30:20.620Z,16.57
2023-03-26T14:33:10.661Z,16.51
2023-03-26T14:35:47.777Z,16.43
2023-03-26T14:38:55.424Z,16.36
2023-03-26T14:41:30.780Z,16.31
2023-03-26T14:44:48.217Z,16.26
2023-03-26T14:47:22.197Z,16.21
2023-03-26T14:50:26.996Z,16.18
2023-03-26T14:53:06.521Z,16.14
2023-03-26T14:55:59.371Z,16.12
2023-03-26T14:59:03.993Z,16.10
2023-03-26T15:02:02.589Z,16.06
2023-03-26T15:04:55.416Z,16.05
2023-03-26T15:08:11.203Z,16.06
2023-03-26T15:11:02.446Z,16.05
2023-03-26T15:13:52.176Z,16.05
2023-03-26T15:17:02.483Z,15.99
2023-03-26T15:20:03.698Z,15.96
2023-03-26T15:23:11.874Z,15.90
2023-03-26T15:26:25.750Z,15.87
2023-03-26T15:29:30.396Z,15.82
2023-03-26T15:32:30.510Z,15.78
2023-03-26T15:35:35.003Z,15.73
2023-03-26T15:38:54.276Z,15.69
2023-03-26T15:41:34.925Z,15.64
2023-03-26T15:44:32.993Z,15.61
2023-03-26T15:47:34.710Z,15.59
2023-03-26T15:50:22.437Z,15.55
2023-03-26T15:53:03.676Z,15.52
2023-03-26T15:55:42.502Z,15.51
2023-03-26T15:58:24.573Z,15.47
2023-03-26T16:01:03.091Z,15.46
2023-03-26T16:03:43.530Z,15.43
2023-03-26T16:06:32.566Z,15.40
2023-03-26T16:09:18.067Z,15.36
2023-03-26T16:11:56.732Z,15.31
2023-03-26T16:14:47.177Z,15.27
2023-03-26T16:17:22.050Z,15.23
2023-03-26T16:19:58.077Z,15.22
2023-03-26T16:22:48.585Z,15.17
2023-03-26T16:25:30.576Z,15.12
2023-03-26T16:28:35.857Z,15.09
2023-03-26T16:31:39.612Z,15.02
2023-03-26T16:34:28.810Z,14.97
2023-03-26T16:37:02.392Z,14.92
2023-03-26T16:39:44.612Z,14.87
2023-03-26T16:42:35.072Z,14.81
2023-03-26T16:45:20.981Z,14.76
2023-03-26T16:48:04.033Z,14.71
2023-03-26T16:50:45.553Z,14.64
2023-03-26T16:53:42.066Z,14.56
2023-03-26T16:56:21.719Z,14.47
2023-03-26T16:59:00.649Z,14.42
2023-03-26T17:01:41.661Z,14.35
2023-03-26T17:04:23.484Z,14.28
2023-03-26T17:07:04.469Z,14.23
2023-03-26T17:09:52.202Z,14.16
2023-03-26T17:12:34.879Z,14.09
2023-03-26T17:15:21.089Z,14.03
2023-03-26T17:18:06.378Z,13.96
2023-03-26T17:20:46.154Z,13.88
2023-03-26T17:23:30.532Z,13.81
2023-03-26T17:26:19.724Z,13.74
2023-03-26T17:29:16.406Z,13.64
2023-03-26T17:31:56.277Z,13.54
2023-03-26T17:34:59.512Z,13.43
2023-03-26T17:37:46.259Z,13.34
2023-03-26T17:40:51.294Z,13.20
2023-03-26T17:43:40.737Z,13.07
2023-03-26T17:46:29.044Z,12.94
2023-03-26T17:49:07.991Z,12.82
2023-03-26T17:51:51.998Z,12.69
2023-03-26T17:54:32.451Z,12.57
2023-03-26T17:57:08.548Z,12.47
2023-03-26T17:59:40.433Z,12.39
2023-03-26T18:02:17.963Z,12.30
2023-03-26T18:04:51.938Z,12.21
2023-03-26T18:07:52.316Z,12.10
2023-03-26T18:10:42.211Z,12.02
2023-03-26T18:13:37.564Z,11.93
2023-03-26T18:16:18.086Z,11.87
2023-03-26T18:18:53.793Z,11.83
2023-03-26T18:21:28.987Z,11.78
2023-03-26T18:24:01.640Z,11.74
2023-03-26T18:26:43.001Z,11.63
2023-03-26T18:29:20.782Z,11.23
2023-03-26T18:31:55.757Z,10.26
2023-03-26T18:34:29.638Z,9.12
2023-03-26T18:37:16.079Z,8.17
2023-03-26T18:40:02.358Z,7.32
2023-03-26T18:42:37.190Z,6.82
2023-03-26T18:45:12.426Z,6.57
2023-03-26T18:47:44.104Z,6.43
2023-03-26T18:50:20.125Z,6.44
2023-03-26T18:52:51.569Z,6.50
2023-03-26T18:55:24.174Z,6.66
2023-03-26T18:57:58.126Z,6.79
2023-03-26T19:00:31.047Z,6.87
2023-03-26T19:03:08.405Z,6.91
2023-03-26T19:05:39.920Z,6.87
2023-03-26T19:08:11.037Z,6.73
2023-03-26T19:10:41.861Z,6.46
2023-03-26T19:13:18.180Z,6.22
2023-03-26T19:15:50.897Z,6.13
2023-03-26T19:18:24.926Z,6.18
2023-03-26T19:20:59.223Z,6.26
2023-03-26T19:23:34.214Z,6.35
2023-03-26T19:26:07.076Z,6.43
2023-03-26T19:28:43.249Z,6.48
2023-03-26T19:31:22.841Z,6.49
2023-03-26T19:34:00.265Z,6.48
2023-03-26T19:36:34.994Z,6.61
2023-03-26T19:39:21.613Z,6.84
2023-03-26T19:41:58.683Z,7.07
2023-03-26T19:44:33.833Z,7.26
2023-03-26T19:47:08.995Z,7.46
2023-03-26T19:49:53.835Z,7.66
2023-03-26T19:52:28.350Z,7.83
2023-03-26T19:55:05.157Z,7.98
2023-03-26T19:57:39.474Z,8.10
2023-03-26T20:00:17.495Z,8.22
2023-03-26T20:02:49.112Z,8.33
2023-03-26T20:05:26.566Z,8.44
2023-03-26T20:08:00.975Z,8.51
2023-03-26T20:10:31.801Z,8.60
2023-03-26T20:13:02.441Z,8.63
2023-03-26T20:15:37.650Z,8.66
2023-03-26T20:18:08.892Z,8.66
2023-03-26T20:20:41.335Z,8.70
2023-03-26T20:23:18.069Z,8.72
2023-03-26T20:25:54.733Z,8.73
2023-03-26T20:28:25.676Z,8.73
2023-03-26T20:30:59.289Z,8.73
2023-03-26T20:33:31.741Z,8.70
2023-03-26T20:36:03.184Z,8.70
2023-03-26T20:38:39.625Z,8.69
2023-03-26T20:41:15.453Z,8.67
2023-03-26T20:43:46.377Z,8.66
2023-03-26T20:46:22.083Z,8.64
2023-03-26T20:48:54.089Z,8.63
2023-03-26T20:51:28.987Z,8.61
2023-03-26T20:54:00.802Z,8.59
2023-03-26T20:56:31.661Z,8.56
2023-03-26T20:59:10.428Z,8.50
2023-03-26T21:01:44.646Z,8.48
2023-03-26T21:04:16.444Z,8.44
2023-03-26T21:06:47.288Z,8.41
2023-03-26T21:09:24.128Z,8.37
2023-03-26T21:12:08.408Z,8.38
2023-03-26T21:14:41.960Z,8.37
2023-03-26T21:17:19.658Z,8.35
2023-03-26T21:19:52.293Z,8.32
2023-03-26T21:22:33.906Z,8.29
2023-03-26T21:25:18.834Z,8.25
2023-03-26T21:27:58.871Z,8.20
2023-03-26T21:30:30.154Z,8.18
2023-03-26T21:33:05.617Z,8.14
2023-03-26T21:35:37.440Z,8.07
2023-03-26T21:38:09.726Z,8.03
2023-03-26T21:40:46.962Z,7.98
2023-03-26T21:43:24.997Z,7.93
2023-03-26T21:45:57.746Z,7.91
2023-03-26T21:48:32.245Z,7.88
2023-03-26T21:51:07.410Z,7.84
2023-03-26T21:53:39.132Z,7.81
2023-03-26T21:56:21.973Z,7.77
2023-03-26T21:59:01.878Z,7.74
2023-03-26T22:01:41.103Z,7.67
2023-03-26T22:04:21.363Z,7.66
2023-03-26T22:06:58.381Z,7.61
2023-03-26T22:09:36.278Z,7.60
2023-03-26T22:12:07.841Z,7.56
2023-03-26T22:14:39.025Z,7.54
2023-03-26T22:17:09.734Z,7.47
2023-03-26T22:19:43.111Z,7.45
2023-03-26T22:22:15.166Z,7.39
2023-03-26T22:24:45.779Z,7.34
2023-03-26T22:27:16.469Z,7.29
2023-03-26T22:29:47.609Z,7.23
2023-03-26T22:32:18.372Z,7.16
2023-03-26T22:34:52.484Z,7.09
2023-03-26T22:37:24.126Z,6.96
2023-03-26T22:39:55.056Z,6.91
2023-03-26T22:42:26.215Z,6.85
2023-03-26T22:44:57.227Z,6.78
2023-03-26T22:47:27.886Z,6.65
2023-03-26T22:50:02.307Z,6.57
2023-03-26T22:52:33.986Z,6.46
2023-03-26T22:55:05.093Z,6.33
2023-03-26T22:57:35.910Z,6.19
2023-03-26T23:00:15.157Z,6.07
2023-03-26T23:02:47.842Z,5.92
2023-03-26T23:05:21.495Z,5.63
2023-03-26T23:07:52.547Z,5.04
2023-03-26T23:10:24.461Z,4.44
2023-03-26T23:12:55.455Z,3.87
2023-03-26T23:15:26.167Z,3.44
2023-03-26T23:17:56.847Z,3.09
2023-03-26T23:20:37.907Z,2.91
2023-03-26T23:23:08.826Z,2.78
2023-03-26T23:25:41.078Z,2.67
2023-03-26T23:28:11.733Z,2.60
2023-03-26T23:30:42.473Z,2.56
2023-03-26T23:33:13.314Z,2.60
2023-03-26T23:35:47.787Z,2.67
2023-03-26T23:38:19.674Z,2.81
2023-03-26T23:40:57.161Z,2.97
2023-03-26T23:43:29.519Z,3.09
2023-03-26T23:46:01.431Z,3.15
2023-03-26T23:48:33.171Z,3.08
2023-03-26T23:51:07.227Z,2.97
2023-03-26T23:53:38.014Z,2.89
2023-03-26T23:56:13.826Z,2.79
2023-03-26T23:58:44.628Z,2.72
